Terminal Aerodrome Forecast
Issued by NWS

Home | Current Version | Previous Version | Text Only | Print | Product List | Glossary On
Versions: 1 2 3 4 5 6 7 8 9 10 11 12 13 14 15 16 17 18 19 20 21 22 23
000
FTUS41 KPBZ 232300
TAFDUJ
TAF
KDUJ 232326Z 2400/2424 13011KT P6SM BKN100
     FM240300 14012KT 6SM -RA BKN040
     FM240500 15012G20KT 5SM -RA OVC015
      TEMPO 2406/2410 2SM RA BR OVC008
     FM241300 18012G22KT P6SM OVC025
     FM241500 19017G35KT P6SM BKN050=

USA.gov is the U.S. government's official web portal to all federal, state and local government web resources and services.